Grady, Alabama
Current Conditions -  °F | °C
As of 5:53 PM on Sunday 21 Dec 2014 (Local Time) from KTOI Reporting Station
Overcast Overcast  
Wind Chill: 53°   Ceiling: 500
Heat Index: 53°   Visibility: 8mi
Dew Point: 51°   Wind: 5mph
Humidity: 93%   Direction: 80°E
Pressure: 30.06"   Gusts: NA
Location:  32°N, 86.2°W
Report Text: KTOI 212353Z AUTO 08004KT 8SM OVC005 12/11 A3006 RMK AO2 CIG 004V009 SLP177 T01170106 10139 20117 55003
Loading
Personal Weather Stations






























Interactive Weather Map New forecast layout! Learn more

10-Day Weather Forecast

Advertisements
Track Severe Weather on mobile